This is the latest recevied weather packets stored in our database for station/object CT2IRJ-11. If no packets are shown the sender has not sent any weather packets the latest 10 day(s).
| Time | Temp. | Humidity | Pressure | Rain* | Wind** | Luminosity | Snow |
|---|---|---|---|---|---|---|---|
| 1777977809 | 17.78° C | 60% | 1017.3 hPa | 0 mm | - | 388 W/m² | - |
| 1777977510 | 17.22° C | 62% | 1017.6 hPa | 0 mm | - | 193 W/m² | - |
| 1777977210 | 17.78° C | 62% | 1017.3 hPa | 0 mm | - | 177 W/m² | - |
| 1777976909 | 18.33° C | 60% | 1017.3 hPa | 0 mm | - | 202 W/m² | - |
| 1777976610 | 17.78° C | 63% | 1017.3 hPa | 0 mm | - | 883 W/m² | - |
| 1777976311 | 17.22° C | 64% | 1017.3 hPa | 0 mm | - | 176 W/m² | - |
| 1777976009 | 17.22° C | 63% | 1017.3 hPa | 0 mm | - | 180 W/m² | - |
| 1777975710 | 17.22° C | 64% | 1017.3 hPa | 0 mm | - | 569 W/m² | - |
| 1777975409 | 17.78° C | 63% | 1017.3 hPa | 0 mm | - | 186 W/m² | - |
| 1777975110 | 19.44° C | 60% | 1017.3 hPa | 0 mm | - | 190 W/m² | - |
| 1777974810 | 18.89° C | 62% | 1017.3 hPa | 0 mm | - | 888 W/m² | - |
| 1777974509 | 20° C | 58% | 1017.3 hPa | 0 mm | - | 844 W/m² | - |
| 1777974209 | 19.44° C | 60% | 1017.6 hPa | 0 mm | - | 826 W/m² | - |
| 1777973912 | 17.78° C | 61% | 1017.3 hPa | 0 mm | - | 786 W/m² | - |
| 1777973610 | 17.78° C | 67% | 1017.6 hPa | 0 mm | - | 765 W/m² | - |
| 1777973309 | 15.56° C | 71% | 1017.6 hPa | 0 mm | - | 732 W/m² | - |
| 1777973010 | 16.11° C | 70% | 1017.6 hPa | 0 mm | - | 101 W/m² | - |
| 1777972711 | 16.11° C | 72% | 1017.6 hPa | 0 mm | - | 104 W/m² | - |
| 1777972410 | 16.67° C | 70% | 1017.6 hPa | 0 mm | - | 129 W/m² | - |
| 1777972110 | 16.11° C | 73% | 1017.3 hPa | 0 mm | - | 334 W/m² | - |
| 1777971810 | 16.67° C | 71% | 1017.6 hPa | 0 mm | - | 135 W/m² | - |
| 1777971509 | 18.33° C | 67% | 1017.3 hPa | 0 mm | - | 630 W/m² | - |
| 1777971209 | 18.89° C | 64% | 1017.3 hPa | 0 mm | - | 550 W/m² | - |
| 1777970910 | 18.33° C | 64% | 1017.3 hPa | 0 mm | - | 496 W/m² | - |
| 1777970610 | 17.78° C | 67% | 1017.3 hPa | 0 mm | - | 395 W/m² | - |
* Rain latest hour (hover to see other rain measurements)
** Current wind speed in m/s (hover to see current wind gust speed)